createdAt,value
2022-12-11T00:00:28.521Z,7.75
2022-12-11T00:02:56.859Z,7.20
2022-12-11T00:05:24.445Z,9.18
2022-12-11T00:07:51.730Z,6.90
2022-12-11T00:10:18.820Z,9.05
2022-12-11T00:12:45.791Z,7.50
2022-12-11T00:15:13.359Z,7.43
2022-12-11T00:17:40.380Z,9.82
2022-12-11T00:20:08.574Z,9.40
2022-12-11T00:22:35.771Z,12.88
2022-12-11T00:25:03.056Z,9.77
2022-12-11T00:27:30.334Z,5.78
2022-12-11T00:29:57.522Z,4.47
2022-12-11T00:32:24.521Z,3.90
2022-12-11T00:34:51.503Z,4.40
2022-12-11T00:37:18.723Z,3.88
2022-12-11T00:39:46.283Z,5.90
2022-12-11T00:42:13.328Z,7.22
2022-12-11T00:44:40.494Z,6.75
2022-12-11T00:47:07.977Z,2.78
2022-12-11T00:49:35.201Z,4.47
2022-12-11T00:52:02.297Z,5.28
2022-12-11T00:54:29.321Z,8.07
2022-12-11T00:56:56.604Z,4.72
2022-12-11T00:59:23.727Z,3.13
2022-12-11T01:01:50.634Z,4.78
2022-12-11T01:04:18.125Z,5.10
2022-12-11T01:06:45.294Z,2.90
2022-12-11T01:09:31.222Z,6.80
2022-12-11T01:11:58.538Z,3.25
2022-12-11T01:14:27.170Z,5.63
2022-12-11T01:16:54.430Z,4.55
2022-12-11T01:19:21.734Z,2.03
2022-12-11T01:21:49.122Z,2.33
2022-12-11T01:24:16.189Z,3.20
2022-12-11T01:26:43.195Z,1.80
2022-12-11T01:29:10.352Z,2.75
2022-12-11T01:31:38.757Z,2.65
2022-12-11T01:34:05.826Z,2.70
2022-12-11T01:36:32.796Z,2.13
2022-12-11T01:38:59.995Z,2.92
2022-12-11T01:41:27.394Z,3.92
2022-12-11T01:44:00.121Z,2.47
2022-12-11T01:46:28.715Z,3.25
2022-12-11T01:48:57.322Z,2.60
2022-12-11T01:51:25.454Z,3.15
2022-12-11T01:54:01.623Z,1.60
2022-12-11T01:56:32.891Z,2.78
2022-12-11T01:59:07.627Z,2.60
2022-12-11T02:01:43.793Z,1.52
2022-12-11T02:04:13.030Z,2.97
2022-12-11T02:06:49.728Z,2.08
2022-12-11T02:09:20.874Z,2.60
2022-12-11T02:12:12.341Z,1.27
2022-12-11T02:15:07.997Z,5.82
2022-12-11T02:17:49.526Z,1.58
2022-12-11T02:20:54.813Z,1.63
2022-12-11T02:23:57.892Z,2.13
2022-12-11T02:26:30.691Z,1.98
2022-12-11T02:29:05.973Z,2.53
2022-12-11T02:34:47.487Z,3.95
2022-12-11T02:37:24.174Z,1.80
2022-12-11T02:39:55.023Z,1.30
2022-12-11T02:42:24.247Z,1.35
2022-12-11T02:44:54.486Z,1.67
2022-12-11T02:47:22.715Z,0.90
2022-12-11T02:49:50.595Z,1.10
2022-12-11T02:52:21.552Z,1.10
2022-12-11T02:54:52.582Z,2.08
2022-12-11T02:57:31.683Z,1.48
2022-12-11T02:59:59.041Z,1.88
2022-12-11T03:02:26.382Z,2.00
2022-12-11T03:04:54.746Z,1.70
2022-12-11T03:07:30.192Z,1.95
2022-12-11T03:09:57.875Z,1.25
2022-12-11T03:12:29.592Z,1.15
2022-12-11T03:15:02.725Z,1.00
2022-12-11T03:17:39.157Z,1.65
2022-12-11T03:23:05.227Z,1.63
2022-12-11T03:25:59.759Z,1.13
2022-12-11T03:31:15.007Z,1.23
2022-12-11T03:36:33.858Z,3.45
2022-12-11T03:39:15.832Z,1.17
2022-12-11T04:30:22.927Z,3.38
2022-12-11T04:41:12.843Z,2.50
2022-12-11T04:43:40.522Z,2.28
2022-12-11T04:46:11.452Z,2.28
2022-12-11T05:15:35.452Z,2.67
2022-12-11T05:18:03.170Z,3.78
2022-12-11T05:20:33.700Z,6.32
2022-12-11T05:23:01.184Z,3.63
2022-12-11T05:25:31.431Z,2.08
2022-12-11T05:27:58.901Z,3.15
2022-12-11T05:30:26.969Z,2.97
2022-12-11T05:32:56.561Z,1.77
2022-12-11T05:35:23.898Z,3.85
2022-12-11T05:43:09.761Z,1.70
2022-12-11T05:53:51.609Z,2.30
2022-12-11T05:56:22.079Z,1.13
2022-12-11T06:01:27.439Z,1.88
2022-12-11T06:09:18.304Z,1.55
2022-12-11T07:53:00.511Z,7.30
2022-12-11T07:55:27.924Z,10.00
2022-12-11T07:57:57.062Z,9.02
2022-12-11T08:00:24.217Z,8.70
2022-12-11T08:02:51.276Z,6.50
2022-12-11T08:05:18.541Z,6.68
2022-12-11T08:07:45.717Z,5.00
2022-12-11T08:10:13.472Z,5.43
2022-12-11T08:12:40.687Z,3.63
2022-12-11T08:15:08.736Z,3.35
2022-12-11T08:17:39.993Z,3.13
2022-12-11T08:20:08.721Z,2.50
2022-12-11T08:22:35.921Z,2.38
2022-12-11T08:25:03.420Z,3.25
2022-12-11T08:27:30.613Z,5.13
2022-12-11T08:29:57.781Z,2.33
2022-12-11T08:32:27.735Z,2.38
2022-12-11T08:34:54.864Z,2.25
2022-12-11T08:37:21.931Z,4.25
2022-12-11T08:39:49.066Z,2.20
2022-12-11T08:42:15.992Z,2.10
2022-12-11T08:44:43.172Z,2.83
2022-12-11T08:47:16.221Z,2.95
2022-12-11T08:49:43.124Z,2.67
2022-12-11T08:52:10.595Z,3.50
2022-12-11T08:54:41.354Z,3.92
2022-12-11T08:57:08.822Z,3.47
2022-12-11T08:59:36.158Z,2.65
2022-12-11T09:02:03.345Z,6.45
2022-12-11T09:04:30.258Z,3.60
2022-12-11T09:06:57.269Z,4.30
2022-12-11T09:09:24.614Z,2.55
2022-12-11T09:11:51.727Z,3.13
2022-12-11T09:14:33.917Z,3.17
2022-12-11T09:20:00.381Z,3.47
2022-12-11T09:22:27.369Z,3.55
2022-12-11T09:24:54.309Z,4.45
2022-12-11T09:27:22.025Z,5.18
2022-12-11T09:29:49.971Z,6.82
2022-12-11T09:37:29.416Z,8.60
2022-12-11T09:45:28.058Z,6.88
2022-12-11T09:50:34.925Z,11.13
2022-12-11T09:53:20.318Z,7.28
2022-12-11T09:55:53.446Z,12.32
2022-12-11T09:58:38.728Z,9.30
2022-12-11T10:01:22.545Z,12.60
2022-12-11T10:04:11.022Z,10.10
2022-12-11T10:07:04.685Z,10.35
2022-12-11T10:09:52.116Z,10.13
2022-12-11T10:12:22.006Z,10.43
2022-12-11T10:15:10.833Z,12.05
2022-12-11T10:17:40.464Z,16.35
2022-12-11T10:20:13.294Z,13.98
2022-12-11T10:22:40.541Z,13.25
2022-12-11T10:25:14.470Z,12.77
2022-12-11T10:27:41.937Z,13.65
2022-12-11T10:30:16.104Z,14.57
2022-12-11T10:33:09.104Z,11.77
2022-12-11T10:35:39.286Z,17.98
2022-12-11T10:38:24.311Z,12.93
2022-12-11T10:41:01.698Z,15.60
2022-12-11T10:43:42.804Z,18.55
2022-12-11T10:46:33.201Z,17.35
2022-12-11T10:49:01.394Z,16.38
2022-12-11T10:51:31.581Z,19.20
2022-12-11T10:54:07.406Z,17.45
2022-12-11T10:56:37.745Z,18.83
2022-12-11T10:59:05.743Z,27.10
2022-12-11T11:01:33.368Z,20.20
2022-12-11T11:04:07.380Z,21.65
2022-12-11T11:06:34.496Z,24.38
2022-12-11T11:09:04.170Z,25.33
2022-12-11T11:11:35.526Z,19.92
2022-12-11T11:14:12.759Z,16.17
2022-12-11T11:16:41.476Z,20.48
2022-12-11T11:19:18.750Z,25.77
2022-12-11T11:21:52.193Z,18.08
2022-12-11T11:24:27.240Z,21.08
2022-12-11T11:27:12.763Z,19.58
2022-12-11T11:29:41.284Z,20.00
2022-12-11T11:32:22.935Z,15.80
2022-12-11T11:34:50.381Z,15.52
2022-12-11T11:37:37.886Z,17.13
2022-12-11T11:40:23.385Z,26.23
2022-12-11T11:43:03.413Z,25.92
2022-12-11T11:45:42.924Z,22.73
2022-12-11T11:48:25.485Z,25.77
2022-12-11T11:50:54.266Z,32.58
2022-12-11T11:53:37.623Z,26.20
2022-12-11T11:56:23.155Z,35.10
2022-12-11T11:59:03.074Z,26.20
2022-12-11T12:01:30.744Z,20.63
2022-12-11T12:03:58.484Z,17.20
2022-12-11T12:06:48.982Z,27.95
2022-12-11T12:09:35.101Z,20.05
2022-12-11T12:12:33.981Z,23.17
2022-12-11T12:15:13.739Z,18.35
2022-12-11T12:18:14.056Z,23.58
2022-12-11T12:20:54.028Z,22.00
2022-12-11T12:24:00.785Z,15.43
2022-12-11T12:26:31.925Z,19.10
2022-12-11T12:29:07.765Z,17.98
2022-12-11T12:31:56.089Z,17.20
2022-12-11T12:34:42.530Z,11.68
2022-12-11T12:37:28.008Z,13.35
2022-12-11T12:40:03.408Z,16.30
2022-12-11T12:42:48.660Z,14.30
2022-12-11T12:45:15.694Z,24.77
2022-12-11T12:47:47.730Z,19.27
2022-12-11T12:50:21.743Z,15.75
2022-12-11T12:52:49.387Z,18.05
2022-12-11T12:55:37.068Z,18.30
2022-12-11T12:58:06.196Z,17.13
2022-12-11T13:00:41.365Z,15.07
2022-12-11T13:03:21.090Z,13.63
2022-12-11T13:06:01.463Z,13.95
2022-12-11T13:08:39.806Z,13.25
2022-12-11T13:11:12.410Z,15.52
2022-12-11T13:13:51.575Z,15.32
2022-12-11T13:16:21.480Z,14.90
2022-12-11T13:18:48.581Z,16.00
2022-12-11T13:21:41.135Z,15.07
2022-12-11T13:24:21.473Z,14.90
2022-12-11T13:26:50.272Z,14.30
2022-12-11T13:29:39.526Z,16.70
2022-12-11T13:32:08.988Z,14.85
2022-12-11T13:34:45.305Z,14.82
2022-12-11T13:37:34.076Z,18.65
2022-12-11T13:40:09.187Z,18.55
2022-12-11T13:42:44.350Z,21.08
2022-12-11T13:45:26.747Z,18.10
2022-12-11T13:47:54.974Z,17.35
2022-12-11T13:50:26.324Z,22.38
2022-12-11T13:52:58.191Z,17.80
2022-12-11T13:55:33.689Z,21.00
2022-12-11T13:58:25.708Z,21.13
2022-12-11T14:01:32.279Z,17.33
2022-12-11T14:04:08.313Z,19.95
2022-12-11T14:06:37.272Z,17.73
2022-12-11T14:09:05.773Z,23.15
2022-12-11T14:11:42.323Z,84.53
2022-12-11T14:16:49.080Z,21.17
2022-12-11T14:19:20.036Z,17.23
2022-12-11T14:22:08.102Z,21.20
2022-12-11T14:24:35.282Z,19.20
2022-12-11T14:27:02.740Z,20.58
2022-12-11T14:29:33.042Z,19.48
2022-12-11T14:32:04.879Z,22.00
2022-12-11T14:34:43.714Z,26.67
2022-12-11T14:37:11.687Z,31.83
2022-12-11T14:39:50.112Z,72.07
2022-12-11T14:42:21.314Z,32.42
2022-12-11T14:45:00.313Z,30.58
2022-12-11T14:47:38.014Z,30.58
2022-12-11T14:52:48.944Z,33.88
2022-12-11T14:55:30.733Z,33.95
2022-12-11T14:58:05.091Z,30.20
2022-12-11T15:00:37.260Z,29.80
2022-12-11T15:03:25.502Z,35.00
2022-12-11T15:05:57.483Z,38.13
2022-12-11T15:08:32.815Z,33.70
2022-12-11T15:13:55.510Z,35.33
2022-12-11T15:16:25.348Z,33.97
2022-12-11T15:18:54.831Z,33.33
2022-12-11T15:24:42.109Z,34.83
2022-12-11T15:27:34.272Z,38.55
2022-12-11T15:30:01.439Z,38.33
2022-12-11T15:32:28.301Z,39.03
2022-12-11T15:40:49.255Z,39.83
2022-12-11T15:43:16.162Z,43.15
2022-12-11T15:45:43.607Z,39.03
2022-12-11T15:48:11.815Z,39.38
2022-12-11T15:50:40.451Z,38.03
2022-12-11T15:53:10.618Z,37.70
2022-12-11T15:55:39.406Z,40.45
2022-12-11T15:58:12.404Z,39.10
2022-12-11T16:00:39.542Z,36.45
2022-12-11T16:03:06.689Z,41.45
2022-12-11T16:05:33.635Z,46.50
2022-12-11T16:08:00.981Z,39.85
2022-12-11T16:10:28.507Z,40.55
2022-12-11T16:12:59.746Z,43.78
2022-12-11T16:15:28.069Z,47.08
2022-12-11T16:18:07.551Z,49.30
2022-12-11T16:20:36.162Z,45.08
2022-12-11T16:23:03.371Z,45.80
2022-12-11T16:25:32.973Z,42.78
2022-12-11T16:28:02.064Z,49.42
2022-12-11T16:30:30.255Z,43.67
2022-12-11T16:32:57.512Z,44.78
2022-12-11T16:35:24.674Z,45.97
2022-12-11T16:37:53.880Z,46.00
2022-12-11T16:40:21.514Z,47.25
2022-12-11T16:42:49.856Z,47.67
2022-12-11T16:45:23.358Z,42.53
2022-12-11T16:47:51.416Z,43.10
2022-12-11T16:50:18.653Z,51.35
2022-12-11T16:52:46.385Z,40.95
2022-12-11T16:55:14.980Z,41.42
2022-12-11T16:57:42.594Z,40.47
2022-12-11T17:00:12.875Z,43.60
2022-12-11T17:02:40.493Z,46.22
2022-12-11T17:05:08.061Z,43.45
2022-12-11T17:07:35.568Z,52.13
2022-12-11T17:10:03.513Z,48.20
2022-12-11T17:12:31.504Z,46.00
2022-12-11T17:14:58.573Z,45.90
2022-12-11T17:17:25.823Z,52.20
2022-12-11T17:19:53.290Z,43.05
2022-12-11T17:22:20.817Z,46.95
2022-12-11T17:24:48.246Z,47.08
2022-12-11T17:27:15.679Z,38.63
2022-12-11T17:29:42.870Z,37.45
2022-12-11T17:32:09.905Z,40.75
2022-12-11T17:34:38.562Z,41.83
2022-12-11T17:37:06.469Z,41.55
2022-12-11T17:39:33.940Z,42.08
2022-12-11T17:42:01.649Z,42.70
2022-12-11T17:44:30.989Z,43.17
2022-12-11T17:46:59.407Z,47.90
2022-12-11T17:49:27.037Z,45.67
2022-12-11T17:51:55.594Z,53.95
2022-12-11T17:54:24.360Z,47.00
2022-12-11T17:56:51.697Z,49.28
2022-12-11T17:59:18.952Z,43.92
2022-12-11T18:01:46.197Z,47.13
2022-12-11T18:04:13.368Z,46.47
2022-12-11T18:06:40.407Z,50.97
2022-12-11T18:09:08.890Z,53.38
2022-12-11T18:11:36.315Z,48.75
2022-12-11T18:14:03.369Z,47.55
2022-12-11T18:16:33.672Z,49.08
2022-12-11T18:19:01.166Z,47.67
2022-12-11T18:21:32.046Z,41.47
2022-12-11T18:24:00.246Z,41.72
2022-12-11T18:26:30.152Z,42.78
2022-12-11T18:28:58.425Z,45.13
2022-12-11T18:31:25.860Z,46.20
2022-12-11T18:33:55.965Z,46.97
2022-12-11T18:36:26.144Z,52.60
2022-12-11T18:38:53.254Z,62.85
2022-12-11T18:41:20.713Z,59.35
2022-12-11T18:43:48.605Z,55.10
2022-12-11T18:46:18.160Z,53.35
2022-12-11T18:48:46.634Z,53.78
2022-12-11T18:51:17.586Z,57.58
2022-12-11T18:53:45.703Z,49.70
2022-12-11T18:56:18.238Z,54.22
2022-12-11T18:58:45.714Z,47.28
2022-12-11T19:01:19.128Z,45.92
2022-12-11T19:03:46.637Z,48.75
2022-12-11T19:06:20.300Z,51.22
2022-12-11T19:08:47.506Z,52.83
2022-12-11T19:11:20.419Z,55.10
2022-12-11T19:13:47.896Z,53.17
2022-12-11T19:16:20.155Z,56.55
2022-12-11T19:18:47.143Z,60.63
2022-12-11T19:21:19.353Z,64.55
2022-12-11T19:23:47.345Z,58.42
2022-12-11T19:26:18.219Z,59.00
2022-12-11T19:28:46.104Z,67.55
2022-12-11T19:31:16.023Z,54.50
2022-12-11T19:33:43.979Z,49.38
2022-12-11T19:36:13.137Z,52.00
2022-12-11T19:38:41.665Z,58.58
2022-12-11T19:41:15.068Z,55.63
2022-12-11T19:43:41.978Z,51.08
2022-12-11T19:46:10.927Z,55.10
2022-12-11T19:48:38.944Z,46.25
2022-12-11T19:51:12.082Z,49.20
2022-12-11T19:53:39.865Z,50.30
2022-12-11T19:56:08.582Z,46.63
2022-12-11T19:58:35.593Z,53.63
2022-12-11T20:01:03.588Z,52.90
2022-12-11T20:03:31.233Z,45.10
2022-12-11T20:06:07.809Z,49.25
2022-12-11T20:11:17.887Z,54.75
2022-12-11T20:13:46.609Z,55.40
2022-12-11T20:16:14.589Z,54.55
2022-12-11T20:18:42.469Z,58.88
2022-12-11T20:21:15.017Z,58.25
2022-12-11T20:23:42.672Z,59.47
2022-12-11T20:26:18.421Z,54.83
2022-12-11T20:28:48.248Z,58.67
2022-12-11T20:31:20.220Z,50.92
2022-12-11T20:33:56.837Z,55.25
2022-12-11T20:36:24.997Z,55.20
2022-12-11T20:38:52.763Z,54.88
2022-12-11T20:41:22.552Z,56.72
2022-12-11T20:43:51.654Z,52.85
2022-12-11T20:46:19.036Z,55.63
2022-12-11T20:48:47.008Z,63.08
2022-12-11T20:51:18.610Z,63.47
2022-12-11T20:53:56.744Z,51.88
2022-12-11T20:56:25.683Z,51.38
2022-12-11T20:58:52.881Z,52.30
2022-12-11T21:01:23.253Z,55.35
2022-12-11T21:03:52.013Z,60.60
2022-12-11T21:06:31.521Z,62.10
2022-12-11T21:09:05.532Z,61.60
2022-12-11T21:11:32.813Z,60.30
2022-12-11T21:13:59.967Z,60.13
2022-12-11T21:16:27.672Z,64.20
2022-12-11T21:18:56.235Z,59.30
2022-12-11T21:21:23.675Z,58.28
2022-12-11T21:23:50.653Z,55.83
2022-12-11T21:26:18.177Z,56.75
2022-12-11T21:28:45.378Z,55.58
2022-12-11T21:31:15.431Z,54.30
2022-12-11T21:33:42.640Z,59.45
2022-12-11T21:36:17.979Z,61.45
2022-12-11T21:38:45.979Z,63.92
2022-12-11T21:41:16.064Z,59.22
2022-12-11T21:44:14.568Z,57.53
2022-12-11T21:46:32.003Z,46.00
2022-12-11T21:48:59.070Z,54.95
2022-12-11T21:51:36.835Z,50.53
2022-12-11T21:54:07.133Z,47.67
2022-12-11T21:56:34.511Z,58.55
2022-12-11T21:59:04.146Z,54.55
2022-12-11T22:01:37.424Z,50.72
2022-12-11T22:04:05.914Z,50.80
2022-12-11T22:06:33.590Z,55.08
2022-12-11T22:09:01.068Z,50.90
2022-12-11T22:11:30.696Z,49.47
2022-12-11T22:13:58.011Z,55.80
2022-12-11T22:16:25.747Z,50.30
2022-12-11T22:18:52.940Z,49.08
2022-12-11T22:21:20.684Z,51.75
2022-12-11T22:23:48.501Z,49.10
2022-12-11T22:26:22.203Z,47.00
2022-12-11T22:28:50.351Z,49.55
2022-12-11T22:33:32.902Z,43.27
2022-12-11T22:36:01.032Z,46.13
2022-12-11T22:38:30.234Z,50.70
2022-12-11T22:40:57.900Z,44.60
2022-12-11T22:43:27.809Z,45.83
2022-12-11T22:45:55.821Z,50.75
2022-12-11T22:48:27.821Z,46.38
2022-12-11T22:50:55.275Z,55.78
2022-12-11T22:53:22.732Z,44.28
2022-12-11T22:55:49.952Z,48.42
2022-12-11T22:58:21.587Z,50.60
2022-12-11T23:00:49.001Z,45.03
2022-12-11T23:03:16.883Z,52.20
2022-12-11T23:05:44.089Z,51.85
2022-12-11T23:08:11.281Z,53.90
2022-12-11T23:10:41.422Z,46.30
2022-12-11T23:13:09.080Z,49.05
2022-12-11T23:15:36.422Z,48.38
2022-12-11T23:18:03.973Z,48.17
2022-12-11T23:20:31.036Z,43.80
2022-12-11T23:22:58.344Z,46.05
2022-12-11T23:25:26.030Z,44.35
2022-12-11T23:27:53.540Z,40.30
2022-12-11T23:30:20.706Z,45.63
2022-12-11T23:32:47.689Z,52.58
2022-12-11T23:35:14.936Z,46.30
2022-12-11T23:37:42.294Z,43.17
2022-12-11T23:40:10.045Z,45.90
2022-12-11T23:42:37.083Z,48.28
2022-12-11T23:45:04.558Z,44.95
2022-12-11T23:47:31.992Z,48.28
2022-12-11T23:49:59.471Z,46.80
2022-12-11T23:52:26.922Z,44.80
2022-12-11T23:54:55.869Z,47.13
2022-12-11T23:57:22.948Z,45.88
2022-12-11T23:59:50.205Z,48.20
